sensor_id;sensor_type;location;lat;lon;timestamp;P1;durP1;ratioP1;P2;durP2;ratioP2
77409;SDS011;66481;51.332;22.804;2023-07-09T00:01:42;16.80;;;12.88;;
77409;SDS011;66481;51.332;22.804;2023-07-09T00:05:43;15.45;;;12.10;;
77409;SDS011;66481;51.332;22.804;2023-07-09T00:09:47;19.80;;;12.88;;
77409;SDS011;66481;51.332;22.804;2023-07-09T00:13:49;14.45;;;11.82;;
77409;SDS011;66481;51.332;22.804;2023-07-09T00:17:51;14.15;;;10.88;;
77409;SDS011;66481;51.332;22.804;2023-07-09T00:21:52;15.48;;;11.23;;
77409;SDS011;66481;51.332;22.804;2023-07-09T00:25:56;17.45;;;11.60;;
77409;SDS011;66481;51.332;22.804;2023-07-09T00:29:57;17.20;;;11.85;;
77409;SDS011;66481;51.332;22.804;2023-07-09T00:33:58;18.33;;;12.50;;
77409;SDS011;66481;51.332;22.804;2023-07-09T00:38:00;15.07;;;11.23;;
77409;SDS011;66481;51.332;22.804;2023-07-09T00:42:01;15.43;;;12.63;;
77409;SDS011;66481;51.332;22.804;2023-07-09T00:50:58;17.38;;;12.02;;
77409;SDS011;66481;51.332;22.804;2023-07-09T00:55:00;17.85;;;13.70;;
77409;SDS011;66481;51.332;22.804;2023-07-09T00:59:07;16.00;;;12.38;;
77409;SDS011;66481;51.332;22.804;2023-07-09T01:03:13;17.83;;;12.68;;
77409;SDS011;66481;51.332;22.804;2023-07-09T01:07:20;16.90;;;13.07;;
77409;SDS011;66481;51.332;22.804;2023-07-09T01:11:22;17.10;;;13.60;;
77409;SDS011;66481;51.332;22.804;2023-07-09T01:15:23;17.23;;;12.73;;
77409;SDS011;66481;51.332;22.804;2023-07-09T01:19:25;17.60;;;12.70;;
77409;SDS011;66481;51.332;22.804;2023-07-09T01:23:29;20.00;;;14.38;;
77409;SDS011;66481;51.332;22.804;2023-07-09T01:27:34;22.10;;;16.38;;
77409;SDS011;66481;51.332;22.804;2023-07-09T01:31:38;19.77;;;15.55;;
77409;SDS011;66481;51.332;22.804;2023-07-09T01:35:39;18.73;;;15.20;;
77409;SDS011;66481;51.332;22.804;2023-07-09T01:39:43;22.63;;;16.70;;
77409;SDS011;66481;51.332;22.804;2023-07-09T01:43:45;19.00;;;15.43;;
77409;SDS011;66481;51.332;22.804;2023-07-09T01:47:47;20.92;;;15.57;;
77409;SDS011;66481;51.332;22.804;2023-07-09T01:51:48;18.65;;;14.98;;
77409;SDS011;66481;51.332;22.804;2023-07-09T01:55:50;18.95;;;13.48;;
77409;SDS011;66481;51.332;22.804;2023-07-09T01:59:52;18.90;;;14.52;;
77409;SDS011;66481;51.332;22.804;2023-07-09T02:03:55;18.05;;;14.73;;
77409;SDS011;66481;51.332;22.804;2023-07-09T02:07:56;19.67;;;13.38;;
77409;SDS011;66481;51.332;22.804;2023-07-09T02:11:57;17.80;;;13.25;;
77409;SDS011;66481;51.332;22.804;2023-07-09T02:15:57;17.42;;;12.77;;
77409;SDS011;66481;51.332;22.804;2023-07-09T02:19:58;18.30;;;13.90;;
77409;SDS011;66481;51.332;22.804;2023-07-09T02:23:59;17.92;;;12.65;;
77409;SDS011;66481;51.332;22.804;2023-07-09T02:28:00;19.55;;;13.25;;
77409;SDS011;66481;51.332;22.804;2023-07-09T02:32:01;18.55;;;14.02;;
77409;SDS011;66481;51.332;22.804;2023-07-09T02:36:02;19.00;;;14.70;;
77409;SDS011;66481;51.332;22.804;2023-07-09T02:40:03;21.73;;;15.05;;
77409;SDS011;66481;51.332;22.804;2023-07-09T02:44:05;19.45;;;14.32;;
77409;SDS011;66481;51.332;22.804;2023-07-09T02:48:07;20.85;;;15.75;;
77409;SDS011;66481;51.332;22.804;2023-07-09T02:52:08;20.20;;;14.73;;
77409;SDS011;66481;51.332;22.804;2023-07-09T02:56:10;15.57;;;13.88;;
77409;SDS011;66481;51.332;22.804;2023-07-09T03:00:11;17.00;;;11.65;;
77409;SDS011;66481;51.332;22.804;2023-07-09T03:04:12;14.90;;;13.23;;
77409;SDS011;66481;51.332;22.804;2023-07-09T03:08:14;17.23;;;13.20;;
77409;SDS011;66481;51.332;22.804;2023-07-09T03:12:17;20.55;;;14.20;;
77409;SDS011;66481;51.332;22.804;2023-07-09T03:16:18;21.85;;;14.07;;
77409;SDS011;66481;51.332;22.804;2023-07-09T03:20:20;20.20;;;14.80;;
77409;SDS011;66481;51.332;22.804;2023-07-09T03:24:21;23.95;;;15.45;;
77409;SDS011;66481;51.332;22.804;2023-07-09T03:28:22;18.15;;;15.38;;
77409;SDS011;66481;51.332;22.804;2023-07-09T03:32:24;18.90;;;14.52;;
77409;SDS011;66481;51.332;22.804;2023-07-09T03:36:25;20.35;;;14.73;;
77409;SDS011;66481;51.332;22.804;2023-07-09T03:40:26;17.98;;;13.10;;
77409;SDS011;66481;51.332;22.804;2023-07-09T03:44:28;15.63;;;13.82;;
77409;SDS011;66481;51.332;22.804;2023-07-09T03:48:29;17.40;;;11.93;;
77409;SDS011;66481;51.332;22.804;2023-07-09T03:52:30;17.23;;;11.02;;
77409;SDS011;66481;51.332;22.804;2023-07-09T03:56:31;16.83;;;11.65;;
77409;SDS011;66481;51.332;22.804;2023-07-09T04:00:32;15.02;;;11.90;;
77409;SDS011;66481;51.332;22.804;2023-07-09T04:04:34;14.38;;;11.77;;
77409;SDS011;66481;51.332;22.804;2023-07-09T04:08:35;19.23;;;12.73;;
77409;SDS011;66481;51.332;22.804;2023-07-09T04:12:37;14.90;;;13.05;;
77409;SDS011;66481;51.332;22.804;2023-07-09T04:16:38;12.88;;;11.50;;
77409;SDS011;66481;51.332;22.804;2023-07-09T04:20:39;14.63;;;11.05;;
77409;SDS011;66481;51.332;22.804;2023-07-09T04:24:41;13.68;;;11.20;;
77409;SDS011;66481;51.332;22.804;2023-07-09T04:28:42;11.82;;;10.50;;
77409;SDS011;66481;51.332;22.804;2023-07-09T04:32:43;11.65;;;10.32;;
77409;SDS011;66481;51.332;22.804;2023-07-09T04:36:44;12.35;;;9.82;;
77409;SDS011;66481;51.332;22.804;2023-07-09T04:40:46;13.95;;;9.75;;
77409;SDS011;66481;51.332;22.804;2023-07-09T04:44:48;11.85;;;9.77;;
77409;SDS011;66481;51.332;22.804;2023-07-09T04:48:49;12.52;;;10.35;;
77409;SDS011;66481;51.332;22.804;2023-07-09T04:52:50;10.73;;;9.00;;
77409;SDS011;66481;51.332;22.804;2023-07-09T04:56:53;11.48;;;9.82;;
77409;SDS011;66481;51.332;22.804;2023-07-09T05:00:58;10.68;;;9.30;;
77409;SDS011;66481;51.332;22.804;2023-07-09T05:04:59;10.30;;;8.45;;
77409;SDS011;66481;51.332;22.804;2023-07-09T05:09:00;10.48;;;9.00;;
77409;SDS011;66481;51.332;22.804;2023-07-09T05:13:02;9.85;;;8.80;;
77409;SDS011;66481;51.332;22.804;2023-07-09T05:17:03;11.63;;;9.80;;
77409;SDS011;66481;51.332;22.804;2023-07-09T05:21:05;8.48;;;7.78;;
77409;SDS011;66481;51.332;22.804;2023-07-09T05:25:06;8.75;;;7.88;;
77409;SDS011;66481;51.332;22.804;2023-07-09T05:29:07;8.77;;;7.82;;
77409;SDS011;66481;51.332;22.804;2023-07-09T05:33:08;8.80;;;7.90;;
77409;SDS011;66481;51.332;22.804;2023-07-09T05:37:09;8.20;;;7.38;;
77409;SDS011;66481;51.332;22.804;2023-07-09T05:41:10;8.25;;;7.45;;
77409;SDS011;66481;51.332;22.804;2023-07-09T05:45:11;7.75;;;6.63;;
77409;SDS011;66481;51.332;22.804;2023-07-09T05:49:12;9.15;;;8.25;;
77409;SDS011;66481;51.332;22.804;2023-07-09T05:53:13;7.68;;;6.97;;
77409;SDS011;66481;51.332;22.804;2023-07-09T05:57:14;8.27;;;6.50;;
77409;SDS011;66481;51.332;22.804;2023-07-09T06:01:15;6.63;;;6.03;;
77409;SDS011;66481;51.332;22.804;2023-07-09T06:05:16;7.15;;;6.45;;
77409;SDS011;66481;51.332;22.804;2023-07-09T06:09:17;8.13;;;7.32;;
77409;SDS011;66481;51.332;22.804;2023-07-09T06:13:21;7.32;;;6.68;;
77409;SDS011;66481;51.332;22.804;2023-07-09T06:17:23;6.88;;;6.20;;
77409;SDS011;66481;51.332;22.804;2023-07-09T06:21:24;7.10;;;6.13;;
77409;SDS011;66481;51.332;22.804;2023-07-09T06:25:26;6.63;;;5.72;;
77409;SDS011;66481;51.332;22.804;2023-07-09T06:29:27;6.63;;;5.90;;
77409;SDS011;66481;51.332;22.804;2023-07-09T06:33:28;7.43;;;5.78;;
77409;SDS011;66481;51.332;22.804;2023-07-09T06:37:30;6.47;;;5.78;;
77409;SDS011;66481;51.332;22.804;2023-07-09T06:41:31;7.38;;;5.00;;
77409;SDS011;66481;51.332;22.804;2023-07-09T06:50:26;6.20;;;5.50;;
77409;SDS011;66481;51.332;22.804;2023-07-09T06:54:27;5.90;;;5.18;;
77409;SDS011;66481;51.332;22.804;2023-07-09T06:58:29;5.28;;;4.78;;
77409;SDS011;66481;51.332;22.804;2023-07-09T07:02:32;5.40;;;4.90;;
77409;SDS011;66481;51.332;22.804;2023-07-09T07:06:33;6.82;;;5.15;;
77409;SDS011;66481;51.332;22.804;2023-07-09T07:10:35;4.75;;;4.07;;
77409;SDS011;66481;51.332;22.804;2023-07-09T07:14:36;6.03;;;3.80;;
77409;SDS011;66481;51.332;22.804;2023-07-09T07:18:37;5.38;;;4.35;;
77409;SDS011;66481;51.332;22.804;2023-07-09T07:22:39;5.30;;;4.72;;
77409;SDS011;66481;51.332;22.804;2023-07-09T07:26:40;5.05;;;4.50;;
77409;SDS011;66481;51.332;22.804;2023-07-09T07:30:42;5.60;;;5.10;;
77409;SDS011;66481;51.332;22.804;2023-07-09T07:34:44;4.90;;;4.50;;
77409;SDS011;66481;51.332;22.804;2023-07-09T07:38:48;4.97;;;4.53;;
77409;SDS011;66481;51.332;22.804;2023-07-09T07:46:51;6.25;;;4.68;;
77409;SDS011;66481;51.332;22.804;2023-07-09T07:50:57;11.57;;;4.90;;
77409;SDS011;66481;51.332;22.804;2023-07-09T07:54:59;5.10;;;4.70;;
77409;SDS011;66481;51.332;22.804;2023-07-09T07:59:01;4.95;;;4.45;;
77409;SDS011;66481;51.332;22.804;2023-07-09T08:03:03;5.38;;;4.70;;
77409;SDS011;66481;51.332;22.804;2023-07-09T08:07:04;5.93;;;5.05;;
77409;SDS011;66481;51.332;22.804;2023-07-09T08:11:06;5.95;;;4.75;;
77409;SDS011;66481;51.332;22.804;2023-07-09T08:15:08;5.85;;;5.32;;
77409;SDS011;66481;51.332;22.804;2023-07-09T08:19:09;5.72;;;5.20;;
77409;SDS011;66481;51.332;22.804;2023-07-09T08:23:11;5.90;;;5.13;;
77409;SDS011;66481;51.332;22.804;2023-07-09T08:27:12;5.32;;;4.20;;
77409;SDS011;66481;51.332;22.804;2023-07-09T08:31:14;5.00;;;4.45;;
77409;SDS011;66481;51.332;22.804;2023-07-09T08:35:15;4.65;;;4.07;;
77409;SDS011;66481;51.332;22.804;2023-07-09T08:43:26;4.53;;;4.07;;
77409;SDS011;66481;51.332;22.804;2023-07-09T08:47:40;3.88;;;3.55;;
77409;SDS011;66481;51.332;22.804;2023-07-09T08:51:59;6.10;;;4.32;;
77409;SDS011;66481;51.332;22.804;2023-07-09T08:56:02;5.22;;;4.15;;
77409;SDS011;66481;51.332;22.804;2023-07-09T09:04:43;5.00;;;4.57;;
77409;SDS011;66481;51.332;22.804;2023-07-09T09:08:57;5.18;;;4.18;;
77409;SDS011;66481;51.332;22.804;2023-07-09T09:13:05;5.72;;;4.10;;
77409;SDS011;66481;51.332;22.804;2023-07-09T09:17:13;5.32;;;4.05;;
77409;SDS011;66481;51.332;22.804;2023-07-09T09:21:23;4.72;;;3.70;;
77409;SDS011;66481;51.332;22.804;2023-07-09T09:25:31;4.25;;;3.85;;
77409;SDS011;66481;51.332;22.804;2023-07-09T09:29:33;4.43;;;3.83;;
77409;SDS011;66481;51.332;22.804;2023-07-09T09:33:45;6.75;;;3.70;;
77409;SDS011;66481;51.332;22.804;2023-07-09T09:37:51;3.67;;;3.13;;
77409;SDS011;66481;51.332;22.804;2023-07-09T09:41:56;7.10;;;3.35;;
77409;SDS011;66481;51.332;22.804;2023-07-09T09:45:59;5.35;;;3.55;;
77409;SDS011;66481;51.332;22.804;2023-07-09T09:50:02;3.80;;;2.90;;
77409;SDS011;66481;51.332;22.804;2023-07-09T09:54:06;4.25;;;3.70;;
77409;SDS011;66481;51.332;22.804;2023-07-09T09:58:29;3.65;;;2.70;;
77409;SDS011;66481;51.332;22.804;2023-07-09T10:02:37;3.75;;;3.00;;
77409;SDS011;66481;51.332;22.804;2023-07-09T10:06:46;3.88;;;2.90;;
77409;SDS011;66481;51.332;22.804;2023-07-09T10:10:51;5.30;;;2.95;;
77409;SDS011;66481;51.332;22.804;2023-07-09T10:16:22;4.25;;;3.30;;
77409;SDS011;66481;51.332;22.804;2023-07-09T10:19:51;5.30;;;2.72;;
77409;SDS011;66481;51.332;22.804;2023-07-09T10:24:33;5.15;;;2.63;;
77409;SDS011;66481;51.332;22.804;2023-07-09T10:28:51;5.20;;;3.17;;
77409;SDS011;66481;51.332;22.804;2023-07-09T10:33:09;4.30;;;3.15;;
77409;SDS011;66481;51.332;22.804;2023-07-09T10:37:23;3.15;;;2.70;;
77409;SDS011;66481;51.332;22.804;2023-07-09T10:45:51;3.47;;;2.70;;
77409;SDS011;66481;51.332;22.804;2023-07-09T10:50:00;4.43;;;2.63;;
77409;SDS011;66481;51.332;22.804;2023-07-09T10:54:14;4.00;;;2.80;;
77409;SDS011;66481;51.332;22.804;2023-07-09T10:58:57;3.03;;;2.60;;
77409;SDS011;66481;51.332;22.804;2023-07-09T11:03:14;4.57;;;3.28;;
77409;SDS011;66481;51.332;22.804;2023-07-09T11:07:26;4.72;;;2.63;;
77409;SDS011;66481;51.332;22.804;2023-07-09T11:11:37;5.82;;;2.88;;
77409;SDS011;66481;51.332;22.804;2023-07-09T11:15:44;5.20;;;2.60;;
77409;SDS011;66481;51.332;22.804;2023-07-09T11:19:53;3.15;;;2.60;;
77409;SDS011;66481;51.332;22.804;2023-07-09T11:23:57;4.32;;;2.63;;
77409;SDS011;66481;51.332;22.804;2023-07-09T11:28:05;9.27;;;3.15;;
77409;SDS011;66481;51.332;22.804;2023-07-09T11:32:08;3.85;;;2.63;;
77409;SDS011;66481;51.332;22.804;2023-07-09T11:36:11;5.95;;;2.70;;
77409;SDS011;66481;51.332;22.804;2023-07-09T11:40:16;5.25;;;2.65;;
77409;SDS011;66481;51.332;22.804;2023-07-09T11:44:24;4.30;;;2.75;;
77409;SDS011;66481;51.332;22.804;2023-07-09T11:48:31;2.50;;;2.30;;
77409;SDS011;66481;51.332;22.804;2023-07-09T11:52:39;2.72;;;2.42;;
77409;SDS011;66481;51.332;22.804;2023-07-09T11:56:58;2.78;;;2.30;;
77409;SDS011;66481;51.332;22.804;2023-07-09T12:01:00;2.88;;;2.15;;
77409;SDS011;66481;51.332;22.804;2023-07-09T12:05:02;3.05;;;2.15;;
77409;SDS011;66481;51.332;22.804;2023-07-09T12:09:05;2.80;;;2.55;;
77409;SDS011;66481;51.332;22.804;2023-07-09T12:13:08;3.70;;;2.00;;
77409;SDS011;66481;51.332;22.804;2023-07-09T12:17:11;4.60;;;2.80;;
77409;SDS011;66481;51.332;22.804;2023-07-09T12:21:12;2.55;;;2.08;;
77409;SDS011;66481;51.332;22.804;2023-07-09T12:25:19;3.03;;;2.08;;
77409;SDS011;66481;51.332;22.804;2023-07-09T12:29:41;3.20;;;2.22;;
77409;SDS011;66481;51.332;22.804;2023-07-09T12:33:49;3.60;;;2.35;;
77409;SDS011;66481;51.332;22.804;2023-07-09T12:37:53;2.97;;;2.67;;
77409;SDS011;66481;51.332;22.804;2023-07-09T12:41:59;7.05;;;2.40;;
77409;SDS011;66481;51.332;22.804;2023-07-09T12:46:03;3.13;;;2.15;;
77409;SDS011;66481;51.332;22.804;2023-07-09T12:50:25;3.42;;;2.15;;
77409;SDS011;66481;51.332;22.804;2023-07-09T12:54:33;3.10;;;2.00;;
77409;SDS011;66481;51.332;22.804;2023-07-09T12:58:36;5.15;;;2.30;;
77409;SDS011;66481;51.332;22.804;2023-07-09T13:02:39;3.63;;;1.95;;
77409;SDS011;66481;51.332;22.804;2023-07-09T13:06:40;3.25;;;1.88;;
77409;SDS011;66481;51.332;22.804;2023-07-09T13:10:43;2.78;;;2.10;;
77409;SDS011;66481;51.332;22.804;2023-07-09T13:14:52;3.78;;;1.70;;
77409;SDS011;66481;51.332;22.804;2023-07-09T13:18:54;2.20;;;1.80;;
77409;SDS011;66481;51.332;22.804;2023-07-09T13:22:55;3.25;;;1.80;;
77409;SDS011;66481;51.332;22.804;2023-07-09T13:26:59;3.97;;;1.83;;
77409;SDS011;66481;51.332;22.804;2023-07-09T13:31:08;3.33;;;1.90;;
77409;SDS011;66481;51.332;22.804;2023-07-09T13:35:16;2.05;;;1.58;;
77409;SDS011;66481;51.332;22.804;2023-07-09T13:39:19;3.22;;;1.40;;
77409;SDS011;66481;51.332;22.804;2023-07-09T13:47:27;3.05;;;1.30;;
77409;SDS011;66481;51.332;22.804;2023-07-09T13:51:29;2.13;;;1.77;;
77409;SDS011;66481;51.332;22.804;2023-07-09T13:55:31;2.70;;;1.88;;
77409;SDS011;66481;51.332;22.804;2023-07-09T13:59:32;3.22;;;1.50;;
77409;SDS011;66481;51.332;22.804;2023-07-09T14:03:34;3.53;;;1.30;;
77409;SDS011;66481;51.332;22.804;2023-07-09T14:07:37;1.70;;;1.17;;
77409;SDS011;66481;51.332;22.804;2023-07-09T14:11:50;4.07;;;1.90;;
77409;SDS011;66481;51.332;22.804;2023-07-09T14:15:52;2.80;;;1.48;;
77409;SDS011;66481;51.332;22.804;2023-07-09T14:19:54;2.60;;;1.35;;
77409;SDS011;66481;51.332;22.804;2023-07-09T14:23:55;4.50;;;1.73;;
77409;SDS011;66481;51.332;22.804;2023-07-09T14:27:57;1.75;;;1.52;;
77409;SDS011;66481;51.332;22.804;2023-07-09T14:31:58;3.83;;;1.52;;
77409;SDS011;66481;51.332;22.804;2023-07-09T14:35:59;2.10;;;1.35;;
77409;SDS011;66481;51.332;22.804;2023-07-09T14:40:00;2.35;;;1.67;;
77409;SDS011;66481;51.332;22.804;2023-07-09T14:44:01;2.85;;;1.20;;
77409;SDS011;66481;51.332;22.804;2023-07-09T14:48:08;2.78;;;1.60;;
77409;SDS011;66481;51.332;22.804;2023-07-09T14:52:15;3.40;;;1.45;;
77409;SDS011;66481;51.332;22.804;2023-07-09T14:56:18;5.45;;;2.03;;
77409;SDS011;66481;51.332;22.804;2023-07-09T15:00:20;4.03;;;1.70;;
77409;SDS011;66481;51.332;22.804;2023-07-09T15:08:31;2.40;;;1.38;;
77409;SDS011;66481;51.332;22.804;2023-07-09T15:12:35;2.33;;;1.70;;
77409;SDS011;66481;51.332;22.804;2023-07-09T15:16:36;4.10;;;1.30;;
77409;SDS011;66481;51.332;22.804;2023-07-09T15:20:38;2.10;;;1.45;;
77409;SDS011;66481;51.332;22.804;2023-07-09T15:24:40;5.63;;;1.20;;
77409;SDS011;66481;51.332;22.804;2023-07-09T15:28:41;4.07;;;1.58;;
77409;SDS011;66481;51.332;22.804;2023-07-09T15:32:44;2.22;;;1.10;;
77409;SDS011;66481;51.332;22.804;2023-07-09T15:36:47;2.00;;;1.63;;
77409;SDS011;66481;51.332;22.804;2023-07-09T15:40:49;1.75;;;1.50;;
77409;SDS011;66481;51.332;22.804;2023-07-09T15:44:50;1.88;;;1.20;;
77409;SDS011;66481;51.332;22.804;2023-07-09T15:48:55;2.97;;;1.25;;
77409;SDS011;66481;51.332;22.804;2023-07-09T15:52:57;2.33;;;1.10;;
77409;SDS011;66481;51.332;22.804;2023-07-09T15:56:58;1.90;;;1.35;;
77409;SDS011;66481;51.332;22.804;2023-07-09T16:01:01;3.15;;;1.67;;
77409;SDS011;66481;51.332;22.804;2023-07-09T16:05:04;3.22;;;1.33;;
77409;SDS011;66481;51.332;22.804;2023-07-09T16:09:16;3.05;;;1.80;;
77409;SDS011;66481;51.332;22.804;2023-07-09T16:13:19;4.00;;;1.42;;
77409;SDS011;66481;51.332;22.804;2023-07-09T16:17:23;2.72;;;1.80;;
77409;SDS011;66481;51.332;22.804;2023-07-09T16:29:32;2.72;;;1.80;;
77409;SDS011;66481;51.332;22.804;2023-07-09T16:33:35;2.45;;;1.42;;
77409;SDS011;66481;51.332;22.804;2023-07-09T16:37:36;4.60;;;1.50;;
77409;SDS011;66481;51.332;22.804;2023-07-09T16:41:37;4.63;;;1.92;;
77409;SDS011;66481;51.332;22.804;2023-07-09T16:45:38;3.95;;;1.95;;
77409;SDS011;66481;51.332;22.804;2023-07-09T16:49:39;2.38;;;2.00;;
77409;SDS011;66481;51.332;22.804;2023-07-09T16:53:44;3.35;;;1.70;;
77409;SDS011;66481;51.332;22.804;2023-07-09T16:57:46;3.15;;;2.03;;
77409;SDS011;66481;51.332;22.804;2023-07-09T17:01:53;2.15;;;1.30;;
77409;SDS011;66481;51.332;22.804;2023-07-09T17:05:54;3.55;;;2.10;;
77409;SDS011;66481;51.332;22.804;2023-07-09T17:09:55;2.50;;;2.28;;
77409;SDS011;66481;51.332;22.804;2023-07-09T17:13:58;4.93;;;3.92;;
77409;SDS011;66481;51.332;22.804;2023-07-09T17:18:00;9.27;;;4.95;;
77409;SDS011;66481;51.332;22.804;2023-07-09T17:22:01;5.68;;;3.03;;
77409;SDS011;66481;51.332;22.804;2023-07-09T17:26:08;4.90;;;4.43;;
77409;SDS011;66481;51.332;22.804;2023-07-09T17:30:12;4.75;;;2.58;;
77409;SDS011;66481;51.332;22.804;2023-07-09T17:34:17;10.13;;;4.80;;
77409;SDS011;66481;51.332;22.804;2023-07-09T17:42:22;6.00;;;3.15;;
77409;SDS011;66481;51.332;22.804;2023-07-09T17:46:23;8.38;;;4.00;;
77409;SDS011;66481;51.332;22.804;2023-07-09T17:50:26;8.27;;;3.60;;
77409;SDS011;66481;51.332;22.804;2023-07-09T17:54:27;5.38;;;2.40;;
77409;SDS011;66481;51.332;22.804;2023-07-09T17:58:34;5.13;;;2.33;;
77409;SDS011;66481;51.332;22.804;2023-07-09T18:02:37;4.15;;;2.45;;
77409;SDS011;66481;51.332;22.804;2023-07-09T18:06:40;3.50;;;3.17;;
77409;SDS011;66481;51.332;22.804;2023-07-09T18:10:49;7.50;;;2.30;;
77409;SDS011;66481;51.332;22.804;2023-07-09T18:14:53;4.55;;;2.53;;
77409;SDS011;66481;51.332;22.804;2023-07-09T18:18:56;6.55;;;2.60;;
77409;SDS011;66481;51.332;22.804;2023-07-09T18:23:03;7.32;;;2.42;;
77409;SDS011;66481;51.332;22.804;2023-07-09T18:27:05;4.38;;;2.83;;
77409;SDS011;66481;51.332;22.804;2023-07-09T18:31:09;4.80;;;2.13;;
77409;SDS011;66481;51.332;22.804;2023-07-09T18:35:44;5.70;;;2.53;;
77409;SDS011;66481;51.332;22.804;2023-07-09T18:39:39;6.93;;;3.25;;
77409;SDS011;66481;51.332;22.804;2023-07-09T18:43:39;6.88;;;2.72;;
77409;SDS011;66481;51.332;22.804;2023-07-09T18:47:41;3.15;;;2.03;;
77409;SDS011;66481;51.332;22.804;2023-07-09T18:51:43;7.43;;;2.90;;
77409;SDS011;66481;51.332;22.804;2023-07-09T18:55:45;4.10;;;2.90;;
77409;SDS011;66481;51.332;22.804;2023-07-09T18:59:47;28.30;;;16.50;;
77409;SDS011;66481;51.332;22.804;2023-07-09T19:03:48;23.52;;;13.35;;
77409;SDS011;66481;51.332;22.804;2023-07-09T19:07:51;19.10;;;11.90;;
77409;SDS011;66481;51.332;22.804;2023-07-09T19:15:54;7.38;;;4.30;;
77409;SDS011;66481;51.332;22.804;2023-07-09T19:19:55;5.30;;;3.78;;
77409;SDS011;66481;51.332;22.804;2023-07-09T19:23:56;4.10;;;3.45;;
77409;SDS011;66481;51.332;22.804;2023-07-09T19:27:57;3.78;;;2.83;;
77409;SDS011;66481;51.332;22.804;2023-07-09T19:31:59;3.72;;;2.35;;
77409;SDS011;66481;51.332;22.804;2023-07-09T19:36:25;8.00;;;3.17;;
77409;SDS011;66481;51.332;22.804;2023-07-09T19:40:27;4.47;;;2.88;;
77409;SDS011;66481;51.332;22.804;2023-07-09T19:44:29;9.52;;;6.20;;
77409;SDS011;66481;51.332;22.804;2023-07-09T19:48:31;9.27;;;4.80;;
77409;SDS011;66481;51.332;22.804;2023-07-09T19:52:32;4.88;;;3.38;;
77409;SDS011;66481;51.332;22.804;2023-07-09T19:56:33;4.75;;;2.92;;
77409;SDS011;66481;51.332;22.804;2023-07-09T20:00:35;4.00;;;2.78;;
77409;SDS011;66481;51.332;22.804;2023-07-09T20:04:37;4.32;;;3.40;;
77409;SDS011;66481;51.332;22.804;2023-07-09T20:08:38;5.00;;;3.65;;
77409;SDS011;66481;51.332;22.804;2023-07-09T20:12:40;5.28;;;3.35;;
77409;SDS011;66481;51.332;22.804;2023-07-09T20:16:43;5.97;;;3.08;;
77409;SDS011;66481;51.332;22.804;2023-07-09T20:20:47;5.63;;;3.45;;
77409;SDS011;66481;51.332;22.804;2023-07-09T20:24:58;3.92;;;2.65;;
77409;SDS011;66481;51.332;22.804;2023-07-09T20:28:59;6.45;;;3.75;;
77409;SDS011;66481;51.332;22.804;2023-07-09T20:33:01;5.78;;;3.35;;
77409;SDS011;66481;51.332;22.804;2023-07-09T20:37:07;5.22;;;2.90;;
77409;SDS011;66481;51.332;22.804;2023-07-09T20:41:15;7.07;;;4.38;;
77409;SDS011;66481;51.332;22.804;2023-07-09T20:45:20;6.30;;;3.63;;
77409;SDS011;66481;51.332;22.804;2023-07-09T20:49:31;5.20;;;3.30;;
77409;SDS011;66481;51.332;22.804;2023-07-09T20:53:34;5.68;;;3.90;;
77409;SDS011;66481;51.332;22.804;2023-07-09T20:57:35;5.63;;;3.58;;
77409;SDS011;66481;51.332;22.804;2023-07-09T21:01:37;4.10;;;2.67;;
77409;SDS011;66481;51.332;22.804;2023-07-09T21:05:38;4.65;;;3.20;;
77409;SDS011;66481;51.332;22.804;2023-07-09T21:09:40;4.30;;;2.88;;
77409;SDS011;66481;51.332;22.804;2023-07-09T21:13:41;3.80;;;2.95;;
77409;SDS011;66481;51.332;22.804;2023-07-09T21:17:42;5.90;;;3.63;;
77409;SDS011;66481;51.332;22.804;2023-07-09T21:21:43;6.68;;;3.45;;
77409;SDS011;66481;51.332;22.804;2023-07-09T21:25:45;5.53;;;3.20;;
77409;SDS011;66481;51.332;22.804;2023-07-09T21:29:47;4.40;;;3.22;;
77409;SDS011;66481;51.332;22.804;2023-07-09T21:33:48;8.73;;;4.43;;
77409;SDS011;66481;51.332;22.804;2023-07-09T21:37:50;6.90;;;4.80;;
77409;SDS011;66481;51.332;22.804;2023-07-09T21:41:53;6.28;;;4.60;;
77409;SDS011;66481;51.332;22.804;2023-07-09T21:45:56;6.63;;;3.95;;
77409;SDS011;66481;51.332;22.804;2023-07-09T21:49:57;4.82;;;3.50;;
77409;SDS011;66481;51.332;22.804;2023-07-09T21:53:59;4.65;;;3.10;;
77409;SDS011;66481;51.332;22.804;2023-07-09T21:58:00;5.55;;;3.30;;
77409;SDS011;66481;51.332;22.804;2023-07-09T22:02:01;5.82;;;3.30;;
77409;SDS011;66481;51.332;22.804;2023-07-09T22:06:03;4.55;;;3.63;;
77409;SDS011;66481;51.332;22.804;2023-07-09T22:10:05;5.72;;;3.63;;
77409;SDS011;66481;51.332;22.804;2023-07-09T22:14:09;7.50;;;4.30;;
77409;SDS011;66481;51.332;22.804;2023-07-09T22:18:16;5.38;;;3.90;;
77409;SDS011;66481;51.332;22.804;2023-07-09T22:22:19;6.97;;;4.40;;
77409;SDS011;66481;51.332;22.804;2023-07-09T22:26:22;6.65;;;4.45;;
77409;SDS011;66481;51.332;22.804;2023-07-09T22:30:24;7.50;;;4.20;;
77409;SDS011;66481;51.332;22.804;2023-07-09T22:34:26;6.68;;;4.38;;
77409;SDS011;66481;51.332;22.804;2023-07-09T22:38:27;6.38;;;4.63;;
77409;SDS011;66481;51.332;22.804;2023-07-09T22:42:30;6.50;;;4.57;;
77409;SDS011;66481;51.332;22.804;2023-07-09T22:46:32;6.50;;;4.57;;
77409;SDS011;66481;51.332;22.804;2023-07-09T22:50:36;5.82;;;4.03;;
77409;SDS011;66481;51.332;22.804;2023-07-09T22:54:38;8.75;;;5.43;;
77409;SDS011;66481;51.332;22.804;2023-07-09T22:58:39;8.48;;;5.80;;
77409;SDS011;66481;51.332;22.804;2023-07-09T23:02:40;6.97;;;4.88;;
77409;SDS011;66481;51.332;22.804;2023-07-09T23:21:43;4.93;;;4.20;;
77409;SDS011;66481;51.332;22.804;2023-07-09T23:25:45;7.57;;;4.90;;
77409;SDS011;66481;51.332;22.804;2023-07-09T23:29:48;7.18;;;4.75;;
77409;SDS011;66481;51.332;22.804;2023-07-09T23:33:49;6.18;;;4.30;;
77409;SDS011;66481;51.332;22.804;2023-07-09T23:37:51;5.70;;;4.60;;
77409;SDS011;66481;51.332;22.804;2023-07-09T23:41:52;6.80;;;4.32;;
77409;SDS011;66481;51.332;22.804;2023-07-09T23:45:56;5.30;;;4.22;;
77409;SDS011;66481;51.332;22.804;2023-07-09T23:49:57;8.13;;;4.45;;
77409;SDS011;66481;51.332;22.804;2023-07-09T23:53:59;7.45;;;4.60;;
77409;SDS011;66481;51.332;22.804;2023-07-09T23:58:00;6.80;;;4.40;;
